This is the latest recevied weather packets stored in our database for station/object N5KR. If no packets are shown the sender has not sent any weather packets the latest 10 day(s).
| Time | Temp. | Humidity | Pressure | Rain* | Wind** | Luminosity | Snow |
|---|---|---|---|---|---|---|---|
| 1778050507 | 14.44° C | 75% | 1010.4 hPa | 0 mm | - | 0 W/m² | - |
| 1778049606 | 15° C | 74% | 1010.4 hPa | 0 mm | - | 0 W/m² | - |
| 1778047807 | 15.56° C | 75% | 1010.2 hPa | 0 mm | - | 0 W/m² | - |
| 1778044807 | 16.11° C | 76% | 1010.3 hPa | 0 mm | - | 0 W/m² | - |
| 1778043907 | 16.11° C | 76% | 1010 hPa | 0 mm | - | 0 W/m² | - |
| 1778042706 | 16.67° C | 75% | 1009.9 hPa | 0 mm | - | 0 W/m² | - |
| 1778041806 | 16.67° C | 75% | 1009.8 hPa | 0 mm | - | 0 W/m² | - |
| 1778041206 | 17.22° C | 76% | 1009.8 hPa | 0 mm | - | 0 W/m² | - |
| 1778040306 | 17.78° C | 75% | 1009.5 hPa | 0 mm | - | 0 W/m² | - |
| 1778038507 | 18.33° C | 75% | 1009.3 hPa | 0 mm | - | 0 W/m² | - |
| 1778037606 | 18.89° C | 74% | 1009 hPa | 0 mm | - | 0 W/m² | - |
| 1778036707 | 19.44° C | 74% | 1008.6 hPa | 0 mm | - | 0 W/m² | - |
| 1778033406 | 21.67° C | 72% | 1007.3 hPa | 0 mm | - | 0 W/m² | - |
| 1778032206 | 22.78° C | 69% | 1007 hPa | 0 mm | - | 0 W/m² | - |
| 1778031606 | 22.78° C | 68% | 1006.9 hPa | 0 mm | - | 0 W/m² | - |
| 1778028306 | 23.33° C | 67% | 1006.4 hPa | 0 mm | - | 0 W/m² | - |
| 1778027706 | 23.89° C | 66% | 1006.3 hPa | 0 mm | - | 5 W/m² | - |
| 1778025306 | 26.11° C | 62% | 1005.2 hPa | 0 mm | - | 56 W/m² | - |
| 1778023806 | 27.22° C | 59% | 1005.3 hPa | 0 mm | - | 68 W/m² | - |
| 1778022306 | 29.44° C | 50% | 1004.6 hPa | 0 mm | - | 109 W/m² | - |
| 1778021405 | 30.56° C | 47% | 1004.4 hPa | 0 mm | - | 122 W/m² | - |
| 1778020806 | 31.11° C | 46% | 1004.3 hPa | 0 mm | - | 165 W/m² | - |
| 1778018706 | 32.22° C | 50% | 1004.1 hPa | 0 mm | - | 489 W/m² | - |
| 1778017806 | 32.22° C | 51% | 1004.1 hPa | 0 mm | - | 198 W/m² | - |
| 1778017206 | 31.67° C | 54% | 1004.1 hPa | 0 mm | - | 167 W/m² | - |
* Rain latest hour (hover to see other rain measurements)
** Current wind speed in m/s (hover to see current wind gust speed)